Time;durP1;ratioP1;P1;durP2;ratioP2;P2;SDS_P1;SDS_P2;PMS_P1;PMS_P2;Temp;Humidity;BMP_temperature;BMP_pressure;BME280_temperature;BME280_humidity;BME280_pressure;Samples;Min_cycle;Max_cycle;Signal;HPM_P1;HPM_P2
2023/02/14 00:03:35;;;;;;;44.33;27.75;;;;;;;3.31;100.00;103448.38;10419746;28;20116;-65
2023/02/14 00:08:35;;;;;;;44.33;29.60;;;;;;;3.31;100.00;103451.91;10419664;28;20136;-65
2023/02/14 00:13:36;;;;;;;46.15;26.98;;;;;;;3.39;100.00;103449.69;10403350;28;20481;-64
2023/02/14 00:23:56;;;;;;;52.67;28.13;;;;;;;3.30;100.00;103444.84;10418155;28;20068;-64
2023/02/14 00:28:56;;;;;;;44.38;26.73;;;;;;;3.23;100.00;103428.25;10417553;28;20124;-65
2023/02/14 00:33:56;;;;;;;43.22;27.98;;;;;;;3.16;100.00;103424.22;10418663;28;20029;-65
2023/02/14 00:38:57;;;;;;;42.85;27.50;;;;;;;3.16;100.00;103426.00;10419568;28;20033;-65
2023/02/14 00:43:58;;;;;;;51.22;29.33;;;;;;;3.04;100.00;103432.94;10400452;28;20041;-64
2023/02/14 00:48:58;;;;;;;42.25;29.13;;;;;;;2.97;100.00;103423.53;10400593;28;20033;-64
2023/02/14 00:53:59;;;;;;;42.80;29.63;;;;;;;3.01;100.00;103417.91;10419170;28;20037;-65
2023/02/14 00:58:59;;;;;;;46.63;31.63;;;;;;;3.17;100.00;103411.69;10401069;28;20117;-65
2023/02/14 01:04:00;;;;;;;50.05;31.35;;;;;;;3.23;100.00;103408.66;10420139;28;20056;-65
2023/02/14 01:09:00;;;;;;;47.80;30.27;;;;;;;3.20;100.00;103395.44;10420684;28;20041;-66
2023/02/14 01:14:01;;;;;;;51.60;32.92;;;;;;;3.37;100.00;103408.72;10399384;28;20165;-65
2023/02/14 01:19:01;;;;;;;48.95;32.50;;;;;;;3.48;100.00;103406.28;10416268;28;20043;-65
2023/02/14 01:24:04;;;;;;;60.83;33.42;;;;;;;3.45;100.00;103405.59;10416788;28;20072;-65
2023/02/14 01:29:04;;;;;;;45.95;31.67;;;;;;;3.33;100.00;103398.28;10408495;28;20032;-64
2023/02/14 01:34:05;;;;;;;47.78;31.38;;;;;;;3.21;100.00;103398.03;10416312;28;20116;-65
2023/02/14 01:39:07;;;;;;;44.67;30.80;;;;;;;3.16;100.00;103399.22;10415728;28;20042;-65
2023/02/14 01:44:13;;;;;;;55.75;29.02;;;;;;;3.08;100.00;103396.13;10382596;28;20132;-64
2023/02/14 01:49:21;;;;;;;43.33;29.55;;;;;;;3.05;100.00;103396.31;10415963;28;20381;-65
2023/02/14 01:54:22;;;;;;;42.65;30.48;;;;;;;2.96;100.00;103395.88;10398213;28;20155;-65
2023/02/14 01:59:25;;;;;;;48.92;29.83;;;;;;;2.89;100.00;103399.00;10398171;28;20080;-67
2023/02/14 02:04:29;;;;;;;41.03;28.23;;;;;;;2.81;100.00;103394.09;10398512;28;20041;-65
2023/02/14 02:09:53;;;;;;;40.55;28.63;;;;;;;2.70;100.00;103396.47;10397540;28;20134;-64
2023/02/14 02:14:54;;;;;;;47.90;29.17;;;;;;;2.63;100.00;103395.09;10382277;28;20379;-64
2023/02/14 02:20:07;;;;;;;48.17;29.00;;;;;;;2.65;100.00;103404.75;10381365;28;20032;-65
2023/02/14 02:25:25;;;;;;;42.38;29.00;;;;;;;2.56;100.00;103394.56;10414626;28;20033;-65
2023/02/14 02:30:33;;;;;;;39.38;26.70;;;;;;;2.58;100.00;103397.13;10415133;28;20025;-64
2023/02/14 02:35:58;;;;;;;46.95;28.50;;;;;;;2.47;100.00;103387.03;10429959;28;20032;-64
2023/02/14 02:41:20;;;;;;;43.63;26.45;;;;;;;2.52;100.00;103387.63;10415547;28;20025;-64
2023/02/14 02:46:48;;;;;;;41.03;26.10;;;;;;;2.45;100.00;103378.22;10401698;28;20049;-65
2023/02/14 02:57:17;;;;;;;42.78;26.02;;;;;;;2.41;100.00;103374.84;10413027;28;20473;-64
2023/02/14 03:02:29;;;;;;;39.37;24.67;;;;;;;2.34;100.00;103378.81;10406167;28;20037;-65
2023/02/14 03:07:34;;;;;;;35.13;24.33;;;;;;;2.26;100.00;103371.19;10406015;28;20525;-64
2023/02/14 03:12:36;;;;;;;38.67;25.98;;;;;;;2.18;100.00;103376.09;10404196;28;20033;-65
2023/02/14 03:18:06;;;;;;;43.00;26.80;;;;;;;2.19;100.00;103376.97;10423227;28;20030;-64
2023/02/14 03:23:49;;;;;;;42.63;27.98;;;;;;;2.25;100.00;103371.28;10426706;28;20041;-64
2023/02/14 03:29:17;;;;;;;40.03;25.13;;;;;;;2.24;100.00;103372.25;10310722;28;20083;-65
2023/02/14 03:34:22;;;;;;;;;;;;;;;2.17;100.00;103370.81;10389246;28;20124;-65
2023/02/14 03:39:30;;;;;;;40.97;26.95;;;;;;;2.30;100.00;103370.09;10435559;28;20343;-65
2023/02/14 03:44:31;;;;;;;45.80;30.42;;;;;;;2.31;100.00;103366.47;10387063;28;20049;-65
2023/02/14 03:49:34;;;;;;;46.85;29.20;;;;;;;2.33;100.00;103361.06;10386352;28;20449;-65
2023/02/14 03:54:34;;;;;;;46.22;30.25;;;;;;;2.38;100.00;103360.78;10386193;28;20377;-65
2023/02/14 03:59:35;;;;;;;43.92;29.15;;;;;;;2.31;100.00;103358.44;10422186;28;20044;-64
2023/02/14 04:04:38;;;;;;;43.67;29.08;;;;;;;2.30;100.00;103361.22;10402103;28;20378;-65
2023/02/14 04:09:38;;;;;;;41.38;28.92;;;;;;;2.29;100.00;103362.16;10385885;28;20036;-65
2023/02/14 04:14:39;;;;;;;50.67;29.67;;;;;;;2.22;100.00;103360.75;10419191;28;20040;-65
2023/02/14 04:19:39;;;;;;;45.55;30.40;;;;;;;2.30;100.00;103359.41;10385678;28;20052;-65
2023/02/14 04:24:40;;;;;;;45.08;27.88;;;;;;;2.25;100.00;103357.94;10434403;28;20033;-65
2023/02/14 04:29:47;;;;;;;41.97;27.60;;;;;;;2.14;100.00;103347.81;10401054;28;20515;-64
2023/02/14 04:34:48;;;;;;;44.85;28.45;;;;;;;2.15;100.00;103356.69;10401294;28;20052;-65
2023/02/14 04:39:48;;;;;;;45.58;28.58;;;;;;;1.98;100.00;103352.22;10400200;28;20029;-65
2023/02/14 04:44:49;;;;;;;37.97;25.73;;;;;;;1.83;100.00;103364.59;10433157;28;20049;-65
2023/02/14 04:49:49;;;;;;;47.33;30.50;;;;;;;1.91;100.00;103370.41;10400048;28;20038;-65
2023/02/14 04:54:50;;;;;;;39.97;29.88;;;;;;;1.98;100.00;103362.91;10417704;28;20101;-64
2023/02/14 04:59:51;;;;;;;48.22;28.67;;;;;;;2.01;100.00;103366.31;10416893;28;20126;-64
2023/02/14 05:04:51;;;;;;;52.20;27.70;;;;;;;1.97;100.00;103362.06;10417247;28;20448;-65
2023/02/14 05:09:52;;;;;;;43.88;28.92;;;;;;;1.95;100.00;103365.78;10416910;28;20112;-65
2023/02/14 05:14:52;;;;;;;34.75;25.90;;;;;;;1.94;100.00;103361.34;10416393;28;20087;-64
2023/02/14 05:19:52;;;;;;;46.53;28.88;;;;;;;1.98;100.00;103354.91;10432193;28;20030;-65
2023/02/14 05:24:53;;;;;;;46.42;28.55;;;;;;;2.08;100.00;103353.50;10416199;28;20032;-64
2023/02/14 05:29:53;;;;;;;41.38;28.45;;;;;;;2.13;100.00;103347.88;10398737;28;20128;-64
2023/02/14 05:34:54;;;;;;;50.20;33.30;;;;;;;2.17;100.00;103347.66;10423608;28;20056;-64
2023/02/14 05:39:54;;;;;;;47.60;33.45;;;;;;;2.35;100.00;103350.25;10417854;28;20033;-64
2023/02/14 05:44:55;;;;;;;44.15;31.70;;;;;;;2.42;100.00;103335.59;10415744;28;20076;-65
2023/02/14 05:49:55;;;;;;;52.45;33.95;;;;;;;2.44;100.00;103345.28;10399784;28;20120;-64
2023/02/14 05:54:56;;;;;;;50.08;34.90;;;;;;;2.45;100.00;103343.47;10415072;28;20484;-65
2023/02/14 05:59:56;;;;;;;51.78;32.72;;;;;;;2.46;100.00;103343.38;10414955;28;20473;-65
2023/02/14 06:04:57;;;;;;;53.17;34.42;;;;;;;2.43;100.00;103342.69;10397986;28;20029;-65
2023/02/14 06:09:57;;;;;;;50.33;32.28;;;;;;;2.43;100.00;103348.91;10397621;28;20108;-65
2023/02/14 06:14:58;;;;;;;42.10;29.23;;;;;;;2.41;100.00;103341.91;10415245;28;20499;-65
2023/02/14 06:19:58;;;;;;;40.22;29.08;;;;;;;2.41;100.00;103340.09;10418992;28;20416;-65
2023/02/14 06:24:59;;;;;;;52.25;32.72;;;;;;;2.42;100.00;103338.28;10405542;28;20055;-65
2023/02/14 06:29:59;;;;;;;42.55;29.45;;;;;;;2.44;100.00;103353.31;10421720;28;20029;-65
2023/02/14 06:35:00;;;;;;;47.88;30.77;;;;;;;2.57;100.00;103337.44;10423465;28;20140;-64
2023/02/14 06:40:01;;;;;;;55.17;32.67;;;;;;;2.61;100.00;103338.97;10437995;28;20132;-64
2023/02/14 06:45:02;;;;;;;53.58;34.80;;;;;;;2.65;100.00;103334.31;10423421;28;20140;-64
2023/02/14 06:50:03;;;;;;;54.25;33.78;;;;;;;2.67;100.00;103337.78;10422339;28;20037;-64
2023/02/14 06:55:04;;;;;;;49.55;33.20;;;;;;;2.68;100.00;103344.84;10422823;28;20026;-67
2023/02/14 07:00:05;;;;;;;53.53;31.88;;;;;;;2.61;100.00;103346.16;10421990;28;20033;-65
2023/02/14 07:05:06;;;;;;;50.78;32.35;;;;;;;2.54;100.00;103356.31;10437438;28;20039;-64
2023/02/14 07:10:07;;;;;;;54.97;30.63;;;;;;;2.46;100.00;103362.13;10422122;28;20037;-65
2023/02/14 07:15:09;;;;;;;58.80;32.38;;;;;;;2.37;100.00;103367.09;10421668;28;20037;-64
2023/02/14 07:20:10;;;;;;;42.95;32.33;;;;;;;2.54;100.00;103365.22;10420039;28;20381;-64
2023/02/14 07:25:10;;;;;;;55.05;33.75;;;;;;;2.99;100.00;103358.22;10403376;28;20083;-65
2023/02/14 07:30:11;;;;;;;54.97;34.05;;;;;;;3.36;100.00;103360.59;10402790;28;20128;-64
2023/02/14 07:35:12;;;;;;;59.95;35.78;;;;;;;3.61;100.00;103362.72;10420527;28;20179;-65
2023/02/14 07:40:12;;;;;;;59.72;36.97;;;;;;;4.05;100.00;103357.34;10435991;28;20038;-64
2023/02/14 07:45:13;;;;;;;70.85;38.38;;;;;;;4.58;100.00;103360.28;10421925;28;20362;-64
2023/02/14 07:50:13;;;;;;;69.57;43.78;;;;;;;5.38;100.00;103360.44;10437269;28;20049;-65
2023/02/14 07:55:15;;;;;;;73.35;46.08;;;;;;;6.07;100.00;103356.59;10435239;28;20092;-65
2023/02/14 08:00:15;;;;;;;76.38;48.75;;;;;;;6.42;100.00;103355.91;10420133;28;20025;-65
2023/02/14 08:05:16;;;;;;;77.40;49.08;;;;;;;6.58;100.00;103353.84;10435436;28;20373;-65
2023/02/14 08:10:17;;;;;;;76.85;51.95;;;;;;;6.83;100.00;103347.53;10419912;28;20457;-65
2023/02/14 08:20:36;;;;;;;99.40;61.30;;;;;;;7.39;100.00;103350.50;10418531;28;20489;-65
2023/02/14 08:25:37;;;;;;;83.13;57.22;;;;;;;7.71;100.00;103352.56;10418684;28;20060;-64
2023/02/14 08:30:37;;;;;;;88.43;56.03;;;;;;;8.05;100.00;103356.19;10384400;28;20121;-65
2023/02/14 08:35:38;;;;;;;92.03;59.22;;;;;;;8.41;100.00;103340.78;10384586;28;20358;-64
2023/02/14 08:40:38;;;;;;;98.78;57.47;;;;;;;8.96;100.00;103341.66;10417880;28;20067;-65
2023/02/14 08:45:39;;;;;;;90.60;60.38;;;;;;;9.23;100.00;103340.38;10433179;28;20057;-65
2023/02/14 08:50:39;;;;;;;84.60;51.08;;;;;;;9.66;100.00;103342.97;10432435;28;20025;-65
2023/02/14 08:55:39;;;;;;;70.18;48.22;;;;;;;10.14;100.00;103345.09;10432253;28;20450;-65
2023/02/14 09:00:40;;;;;;;63.97;45.33;;;;;;;10.54;100.00;103338.91;10416926;28;20040;-65
2023/02/14 09:05:40;;;;;;;64.18;37.70;;;;;;;10.76;100.00;103340.53;10416936;28;20037;-65
2023/02/14 09:10:41;;;;;;;46.45;27.85;;;;;;;11.04;100.00;103340.72;10400618;28;20072;-65
2023/02/14 09:15:41;;;;;;;40.33;28.40;;;;;;;11.21;100.00;103339.19;10417508;28;20034;-65
2023/02/14 09:20:43;;;;;;;48.45;28.25;;;;;;;11.77;100.00;103336.59;10416606;28;20513;-65
2023/02/14 09:25:43;;;;;;;47.50;29.20;;;;;;;11.91;100.00;103334.44;10399779;28;20061;-65
2023/02/14 09:30:44;;;;;;;42.03;28.75;;;;;;;12.35;100.00;103332.84;10432041;28;20116;-65
2023/02/14 09:41:07;;;;;;;40.70;26.33;;;;;;;12.65;100.00;103334.41;10416112;28;20038;-65
2023/02/14 09:46:08;;;;;;;39.17;26.77;;;;;;;13.11;100.00;103335.25;10416108;28;20057;-65
2023/02/14 09:51:24;;;;;;;39.75;27.30;;;;;;;13.26;100.00;103330.16;10398079;28;20461;-65
2023/02/14 09:56:51;;;;;;;42.88;26.13;;;;;;;13.31;100.00;103332.44;10415470;28;20541;-65
2023/02/14 10:01:56;;;;;;;40.85;28.52;;;;;;;13.77;100.00;103331.25;10432142;28;20041;-65
2023/02/14 10:07:20;;;;;;;40.40;27.00;;;;;;;13.89;100.00;103331.84;10416469;28;20447;-65
2023/02/14 10:12:36;;;;;;;47.58;27.95;;;;;;;14.25;100.00;103320.81;10408601;28;20382;-65
2023/02/14 10:17:40;;;;;;;48.92;27.25;;;;;;;14.81;100.00;103319.38;10431190;28;20033;-65
2023/02/14 10:23:16;;;;;;;45.38;29.05;;;;;;;14.93;100.00;103307.09;10415545;28;20033;-65
2023/02/14 10:28:16;;;;;;;41.17;28.77;;;;;;;15.05;100.00;103311.22;10397660;28;20087;-65
2023/02/14 10:33:18;;;;;;;37.92;26.02;;;;;;;14.80;100.00;103318.50;10414901;28;20076;-65
2023/02/14 10:39:12;;;;;;;39.88;27.10;;;;;;;14.26;100.00;103312.47;10397338;28;20033;-65
2023/02/14 10:44:21;;;;;;;43.10;28.77;;;;;;;14.97;100.00;103315.84;10348578;28;20428;-65
2023/02/14 10:49:27;;;;;;;36.80;25.95;;;;;;;15.54;100.00;103300.34;10429145;28;20050;-65
2023/02/14 10:54:34;;;;;;;40.50;25.40;;;;;;;15.84;100.00;103306.13;10414473;28;20033;-65
2023/02/14 10:59:37;;;;;;;;;;;;;;;16.19;100.00;103303.97;10381339;28;20436;-65
2023/02/14 11:04:38;;;;;;;45.85;26.00;;;;;;;16.19;100.00;103301.25;10414517;28;19916;-65
2023/02/14 11:09:38;;;;;;;40.45;27.67;;;;;;;15.93;100.00;103302.34;10387760;28;20104;-65
2023/02/14 11:14:39;;;;;;;37.42;24.42;;;;;;;15.77;100.00;103294.19;10420982;28;20416;-65
2023/02/14 11:19:39;;;;;;;36.58;24.48;;;;;;;16.03;100.00;103286.59;10403655;28;20032;-65
2023/02/14 11:24:41;;;;;;;36.05;23.10;;;;;;;16.12;100.00;103275.66;10437027;28;20522;-65
2023/02/14 11:29:51;;;;;;;32.85;26.73;;;;;;;16.03;95.12;103275.66;10417762;28;20093;-65
2023/02/14 11:34:53;;;;;;;39.35;27.15;;;;;;;15.92;89.43;103275.19;10435804;28;20025;-65
2023/02/14 11:39:55;;;;;;;41.10;26.77;;;;;;;15.52;82.54;103257.84;10402261;28;20026;-65
2023/02/14 11:44:57;;;;;;;42.80;26.50;;;;;;;15.35;88.96;103255.13;10386348;28;20045;-65
2023/02/14 11:50:04;;;;;;;41.88;28.02;;;;;;;15.63;85.83;103242.94;10420041;28;20120;-65
2023/02/14 11:55:05;;;;;;;44.60;27.90;;;;;;;15.92;93.51;103236.91;10402876;28;20057;-65
2023/02/14 12:00:16;;;;;;;35.17;26.38;;;;;;;15.79;83.27;103230.16;10402688;28;20029;-65
2023/02/14 12:05:35;;;;;;;38.53;26.90;;;;;;;15.50;84.70;103217.03;10386285;28;20038;-65
2023/02/14 12:10:37;;;;;;;47.95;25.10;;;;;;;15.92;86.40;103209.59;10420329;28;20076;-65
2023/02/14 12:15:39;;;;;;;45.92;28.55;;;;;;;15.94;90.25;103211.13;10402665;28;20116;-65
2023/02/14 12:20:58;;;;;;;38.80;27.10;;;;;;;16.32;87.69;103210.44;10418717;28;20034;-65
2023/02/14 12:26:02;;;;;;;35.00;24.85;;;;;;;16.25;88.97;103207.59;10385341;28;20113;-66
2023/02/14 12:31:07;;;;;;;39.60;24.70;;;;;;;16.18;83.19;103195.66;10434535;28;20065;-65
2023/02/14 12:36:32;;;;;;;40.08;26.00;;;;;;;15.99;82.05;103184.13;10418933;28;20034;-65
2023/02/14 12:42:05;;;;;;;44.20;24.90;;;;;;;16.28;89.06;103182.63;10435180;28;20037;-65
2023/02/14 12:47:13;;;;;;;42.90;27.63;;;;;;;16.44;86.53;103168.84;10392479;28;20037;-65
2023/02/14 12:52:32;;;;;;;48.00;24.98;;;;;;;16.65;90.37;103164.56;10433197;28;20037;-65
2023/02/14 12:57:50;;;;;;;34.65;25.35;;;;;;;16.09;76.73;103172.13;10402923;28;20060;-65
2023/02/14 13:03:13;;;;;;;32.83;23.67;;;;;;;16.12;84.91;103156.22;10401860;28;20029;-65
2023/02/14 13:08:48;;;;;;;31.23;22.73;;;;;;;15.96;86.21;103150.84;10400507;28;20314;-65
2023/02/14 13:14:03;;;;;;;35.75;24.58;;;;;;;15.91;83.55;103150.53;10405263;28;20535;-65
2023/02/14 13:19:23;;;;;;;32.92;23.15;;;;;;;15.96;79.43;103142.66;10417709;28;20116;-65
2023/02/14 13:24:26;;;;;;;32.75;23.30;;;;;;;16.11;83.59;103137.25;10432727;28;20465;-65
2023/02/14 13:29:28;;;;;;;36.22;23.60;;;;;;;15.88;81.31;103142.69;10399707;28;20060;-65
2023/02/14 13:34:34;;;;;;;37.80;23.50;;;;;;;16.10;88.87;103130.09;10398789;28;20500;-65
2023/02/14 13:39:36;;;;;;;32.33;23.00;;;;;;;16.39;95.15;103122.03;10414458;28;20039;-65
2023/02/14 13:44:41;;;;;;;29.42;23.35;;;;;;;16.45;94.68;103126.78;10414587;28;20050;-65
2023/02/14 13:49:56;;;;;;;32.50;24.23;;;;;;;16.50;95.04;103120.78;10398032;28;20119;-65
2023/02/14 13:55:00;;;;;;;38.13;25.35;;;;;;;16.25;95.02;103123.69;10399372;28;20132;-65
2023/02/14 14:00:16;;;;;;;35.25;25.00;;;;;;;16.09;96.00;103117.47;10397175;28;20516;-65
2023/02/14 14:05:28;;;;;;;35.92;23.50;;;;;;;15.86;91.99;103117.41;10414494;28;20033;-65
2023/02/14 14:10:50;;;;;;;38.20;25.70;;;;;;;15.64;96.20;103119.88;10414427;28;20042;-65
2023/02/14 14:16:18;;;;;;;36.30;25.15;;;;;;;15.14;91.63;103106.56;10416033;28;20033;-65
2023/02/14 14:21:40;;;;;;;39.15;25.52;;;;;;;15.02;87.54;103112.34;10414465;28;20034;-65
2023/02/14 14:27:04;;;;;;;37.60;25.70;;;;;;;14.85;85.46;103113.41;10398756;28;20040;-65
2023/02/14 14:32:31;;;;;;;42.08;27.38;;;;;;;14.38;89.89;103108.59;10401859;28;20045;-65
2023/02/14 14:37:33;;;;;;;39.33;26.98;;;;;;;14.54;94.18;103096.88;10413522;28;20049;-65
2023/02/14 14:42:38;;;;;;;35.65;24.38;;;;;;;14.62;95.26;103097.75;10420465;28;20037;-65
2023/02/14 14:47:43;;;;;;;36.00;26.48;;;;;;;14.41;95.88;103100.09;10386948;28;20081;-65
2023/02/14 14:52:52;;;;;;;52.85;26.48;;;;;;;14.30;89.58;103105.88;10363491;28;20026;-65
2023/02/14 14:57:55;;;;;;;35.95;24.90;;;;;;;14.11;91.93;103099.72;10363939;28;20032;-65
2023/02/14 15:03:02;;;;;;;41.30;28.35;;;;;;;13.72;91.34;103094.84;10381171;28;20076;-67
2023/02/14 15:08:24;;;;;;;39.72;25.60;;;;;;;13.52;95.37;103087.94;10380739;28;20034;-65
2023/02/14 15:13:52;;;;;;;44.00;27.38;;;;;;;13.41;97.03;103099.97;10381040;28;20089;-65
2023/02/14 15:19:00;;;;;;;46.40;28.33;;;;;;;13.26;97.07;103102.44;10381284;28;20089;-67
2023/02/14 15:24:01;;;;;;;41.78;28.25;;;;;;;13.07;98.67;103097.19;10347785;28;20038;-65
2023/02/14 15:29:03;;;;;;;45.35;29.88;;;;;;;12.90;100.00;103093.53;10379803;28;20084;-65
2023/02/14 15:34:04;;;;;;;39.55;27.92;;;;;;;12.61;99.66;103093.81;10379895;28;20125;-65
2023/02/14 15:39:05;;;;;;;40.08;26.45;;;;;;;12.30;99.96;103083.34;10346226;28;20030;-65
2023/02/14 15:44:19;;;;;;;45.15;29.58;;;;;;;11.95;99.55;103089.59;10351951;28;20045;-65
2023/02/14 15:49:20;;;;;;;53.72;29.95;;;;;;;11.64;98.78;103083.59;10403727;28;20477;-65
2023/02/14 15:54:40;;;;;;;41.38;29.00;;;;;;;11.33;95.62;103073.06;10420590;28;20477;-65
2023/02/14 15:59:41;;;;;;;47.75;31.40;;;;;;;11.15;97.67;103074.84;10419543;28;20054;-66
2023/02/14 16:04:41;;;;;;;61.97;32.20;;;;;;;10.97;97.63;103068.47;10386938;28;20069;-65
2023/02/14 16:09:42;;;;;;;45.55;30.48;;;;;;;10.76;97.65;103069.53;10402041;28;20457;-65
2023/02/14 16:14:44;;;;;;;50.47;32.05;;;;;;;10.62;97.03;103061.84;10417223;28;20053;-65
2023/02/14 16:19:45;;;;;;;45.53;34.35;;;;;;;10.51;96.88;103062.00;10433781;28;20481;-65
2023/02/14 16:24:45;;;;;;;52.33;34.00;;;;;;;10.38;97.50;103065.88;10401731;28;20091;-65
2023/02/14 16:29:45;;;;;;;46.45;31.75;;;;;;;10.24;97.12;103058.13;10417706;28;20121;-65
2023/02/14 16:34:46;;;;;;;54.03;32.22;;;;;;;10.01;97.54;103054.84;10417670;28;20405;-65
2023/02/14 16:39:46;;;;;;;64.57;37.13;;;;;;;9.79;97.75;103055.94;10400707;28;20056;-65
2023/02/14 16:44:47;;;;;;;57.28;36.55;;;;;;;9.63;97.66;103048.34;10402477;28;20382;-65
2023/02/14 16:49:49;;;;;;;57.17;37.20;;;;;;;9.48;98.16;103044.34;10418053;28;20469;-65
2023/02/14 16:54:50;;;;;;;49.83;35.63;;;;;;;9.29;97.51;103054.09;10418806;28;20057;-65
2023/02/14 16:59:50;;;;;;;48.22;36.28;;;;;;;9.04;97.75;103057.25;10417910;28;20567;-65
2023/02/14 17:04:51;;;;;;;55.70;35.58;;;;;;;8.89;98.57;103062.16;10417158;28;20037;-64
2023/02/14 17:09:56;;;;;;;71.55;38.50;;;;;;;8.81;98.47;103049.31;10416860;28;20041;-65
2023/02/14 17:14:58;;;;;;;57.45;36.92;;;;;;;8.66;98.36;103064.16;10399552;28;20029;-65
2023/02/14 17:19:58;;;;;;;53.65;35.75;;;;;;;8.54;98.58;103057.94;10382997;28;20025;-65
2023/02/14 17:24:59;;;;;;;58.92;38.58;;;;;;;8.41;98.75;103072.63;10416247;28;20417;-65
2023/02/14 17:29:59;;;;;;;57.15;37.30;;;;;;;8.19;98.87;103069.00;10433209;28;20045;-65
2023/02/14 17:35:02;;;;;;;61.05;41.08;;;;;;;7.95;99.24;103061.13;10398813;28;20468;-65
2023/02/14 17:40:03;;;;;;;64.13;40.30;;;;;;;7.75;99.80;103069.97;10417742;28;20033;-65
2023/02/14 17:45:05;;;;;;;68.65;40.45;;;;;;;7.60;100.00;103064.03;10415621;28;20049;-64
2023/02/14 17:50:06;;;;;;;73.80;42.72;;;;;;;7.55;100.00;103064.38;10398320;28;20021;-65
2023/02/14 17:55:07;;;;;;;66.05;43.42;;;;;;;7.40;100.00;103055.72;10415626;28;20089;-65
2023/02/14 18:00:08;;;;;;;65.63;41.30;;;;;;;7.34;100.00;103058.91;10415619;28;20116;-65
2023/02/14 18:05:09;;;;;;;74.05;44.20;;;;;;;7.23;100.00;103054.34;10415488;28;20466;-65
2023/02/14 18:10:09;;;;;;;82.47;47.72;;;;;;;7.13;100.00;103063.31;10414978;28;20083;-65
2023/02/14 18:15:10;;;;;;;78.18;46.30;;;;;;;7.13;100.00;103052.53;10419034;28;20461;-65
2023/02/14 18:20:10;;;;;;;68.65;45.33;;;;;;;7.09;100.00;103053.75;10424510;28;20038;-65
2023/02/14 18:25:11;;;;;;;72.53;42.42;;;;;;;6.94;100.00;103062.06;10406290;28;20049;-64
2023/02/14 18:30:12;;;;;;;77.28;45.10;;;;;;;6.77;100.00;103059.00;10423768;28;20037;-65
2023/02/14 18:35:12;;;;;;;71.93;44.47;;;;;;;6.68;100.00;103064.09;10423476;28;20451;-65
2023/02/14 18:40:18;;;;;;;75.53;46.20;;;;;;;6.59;100.00;103056.72;10423409;28;20448;-65
2023/02/14 18:45:19;;;;;;;76.00;45.35;;;;;;;6.51;100.00;103051.94;10438571;28;20076;-65
2023/02/14 18:50:19;;;;;;;83.88;48.95;;;;;;;6.46;100.00;103061.34;10405627;28;20057;-64
2023/02/14 18:55:20;;;;;;;72.53;46.03;;;;;;;6.37;100.00;103053.97;10405595;28;20049;-65
2023/02/14 19:00:21;;;;;;;59.45;40.88;;;;;;;6.22;100.00;103046.09;10407218;28;20083;-65
2023/02/14 19:05:21;;;;;;;79.40;44.47;;;;;;;5.99;100.00;103039.75;10404417;28;20040;-65
2023/02/14 19:10:22;;;;;;;58.00;41.42;;;;;;;5.91;100.00;103047.50;10422506;28;20037;-64
2023/02/14 19:15:22;;;;;;;64.60;45.10;;;;;;;5.89;100.00;103043.22;10421729;28;20110;-66
2023/02/14 19:20:22;;;;;;;68.72;44.65;;;;;;;5.72;100.00;103042.63;10422181;28;20045;-64
2023/02/14 19:25:24;;;;;;;83.57;46.67;;;;;;;5.70;100.00;103041.03;10419570;28;20038;-65
2023/02/14 19:30:25;;;;;;;73.82;44.00;;;;;;;5.58;100.00;103046.34;10421185;28;20041;-65
2023/02/14 19:35:25;;;;;;;83.82;46.10;;;;;;;5.49;100.00;103024.66;10422082;28;20454;-65
2023/02/14 19:40:26;;;;;;;72.20;44.05;;;;;;;5.43;100.00;103028.66;10419320;28;20034;-65
2023/02/14 19:45:31;;;;;;;70.65;44.33;;;;;;;5.38;100.00;103033.47;10402977;28;20469;-65
2023/02/14 19:50:31;;;;;;;76.10;44.67;;;;;;;5.28;100.00;103025.22;10403760;28;20506;-65
2023/02/14 19:55:31;;;;;;;71.28;43.17;;;;;;;5.19;100.00;103022.34;10421093;28;20045;-64
2023/02/14 20:00:32;;;;;;;83.85;47.83;;;;;;;5.13;100.00;103008.38;10420555;28;20073;-65
2023/02/14 20:05:36;;;;;;;73.85;46.25;;;;;;;5.08;100.00;103015.06;10419980;28;20057;-65
2023/02/14 20:10:36;;;;;;;73.93;45.50;;;;;;;5.04;100.00;103002.81;10402491;28;20031;-65
2023/02/14 20:15:36;;;;;;;77.72;45.30;;;;;;;4.93;100.00;103000.06;10418609;28;20124;-65
2023/02/14 20:25:56;;;;;;;87.40;45.65;;;;;;;4.87;100.00;102996.81;10419212;28;20041;-65
2023/02/14 20:30:56;;;;;;;81.20;47.80;;;;;;;4.80;100.00;102994.69;10419339;28;20033;-65
2023/02/14 20:35:57;;;;;;;79.53;47.58;;;;;;;4.66;100.00;102982.25;10418747;28;20469;-65
2023/02/14 20:40:57;;;;;;;73.00;45.08;;;;;;;4.55;100.00;102984.81;10416263;28;20037;-65
2023/02/14 20:46:00;;;;;;;72.85;49.08;;;;;;;4.60;100.00;102983.53;10433532;28;20069;-65
2023/02/14 20:51:14;;;;;;;69.55;44.63;;;;;;;4.46;100.00;102977.41;10417912;28;20026;-65
2023/02/14 20:56:15;;;;;;;79.82;48.33;;;;;;;4.38;100.00;102978.78;10433029;28;20080;-64
2023/02/14 21:01:20;;;;;;;72.50;46.10;;;;;;;4.34;100.00;102981.78;10417596;28;20418;-64
2023/02/14 21:06:22;;;;;;;73.13;47.83;;;;;;;4.19;100.00;102978.34;10399769;28;20030;-65
2023/02/14 21:11:23;;;;;;;83.57;44.33;;;;;;;4.09;100.00;102970.06;10385293;28;20033;-65
2023/02/14 21:16:23;;;;;;;86.82;48.47;;;;;;;4.06;100.00;102975.63;10416565;28;20038;-65
2023/02/14 21:21:32;;;;;;;78.18;46.55;;;;;;;4.02;100.00;102968.78;10432140;28;20038;-65
2023/02/14 21:26:33;;;;;;;76.03;49.60;;;;;;;4.00;100.00;102968.00;10399979;28;20026;-64
2023/02/14 21:31:33;;;;;;;79.05;47.08;;;;;;;3.97;100.00;102966.41;10416413;28;20416;-65
2023/02/14 21:36:34;;;;;;;82.10;48.75;;;;;;;4.08;100.00;102959.44;10431490;28;20056;-65
2023/02/14 21:41:35;;;;;;;72.97;47.75;;;;;;;4.06;100.00;102956.03;10417725;28;20083;-64
2023/02/14 21:46:37;;;;;;;87.05;50.45;;;;;;;4.13;100.00;102949.28;10373544;28;20069;-65
2023/02/14 21:51:38;;;;;;;80.68;51.05;;;;;;;4.07;100.00;102949.69;10374141;28;20030;-64
2023/02/14 21:56:38;;;;;;;87.93;48.45;;;;;;;3.91;100.00;102948.03;10375049;28;20518;-65
2023/02/14 22:01:40;;;;;;;84.90;48.15;;;;;;;3.80;100.00;102944.34;10375714;28;20108;-65
2023/02/14 22:06:41;;;;;;;68.85;44.03;;;;;;;3.65;100.00;102944.44;10341318;28;20117;-65
2023/02/14 22:11:41;;;;;;;77.93;49.17;;;;;;;3.59;100.00;102947.53;10356589;28;20165;-65
2023/02/14 22:16:42;;;;;;;69.18;46.92;;;;;;;3.53;100.00;102947.06;10374514;28;20033;-65
2023/02/14 22:21:42;;;;;;;85.45;50.92;;;;;;;3.47;100.00;102943.81;10357546;28;20465;-65
2023/02/14 22:26:42;;;;;;;75.65;46.20;;;;;;;3.44;100.00;102940.50;10391282;28;20082;-64
2023/02/14 22:31:43;;;;;;;81.18;48.10;;;;;;;3.40;100.00;102942.50;10374312;28;20069;-64
2023/02/14 22:36:43;;;;;;;70.78;46.90;;;;;;;3.38;100.00;102936.41;10356710;28;20112;-64
2023/02/14 22:41:44;;;;;;;92.68;50.20;;;;;;;3.29;100.00;102937.00;10374705;28;20038;-64
2023/02/14 22:46:44;;;;;;;95.20;50.83;;;;;;;3.28;100.00;102935.28;10401599;28;20045;-65
2023/02/14 22:51:46;;;;;;;85.90;52.65;;;;;;;3.24;100.00;102925.72;10413726;28;20053;-65
2023/02/14 22:56:47;;;;;;;81.93;51.38;;;;;;;3.21;100.00;102929.47;10415320;28;20450;-65
2023/02/14 23:01:48;;;;;;;85.80;52.92;;;;;;;3.22;100.00;102928.53;10399812;28;20033;-64
2023/02/14 23:06:50;;;;;;;80.22;49.40;;;;;;;3.25;100.00;102922.97;10437797;28;20033;-64
2023/02/14 23:11:51;;;;;;;93.60;49.35;;;;;;;3.21;100.00;102907.19;10422019;28;20026;-65
2023/02/14 23:22:47;;;;;;;79.35;51.05;;;;;;;3.02;100.00;102923.56;10363600;28;20099;-64